Time;durP1;ratioP1;P1;durP2;ratioP2;P2;SDS_P1;SDS_P2;PMS_P1;PMS_P2;Temp;Humidity;BMP_temperature;BMP_pressure;BME280_temperature;BME280_humidity;BME280_pressure;Samples;Min_cycle;Max_cycle;Signal;HPM_P1;HPM_P2
2024/02/07 00:00:39;;;;;;;5.60;2.07;;;;;;;;;;5020218;28;20320;-71
2024/02/07 00:03:04;;;;;;;6.00;1.10;;;;;;;;;;5015411;28;20178;-70
2024/02/07 00:05:29;;;;;;;4.53;1.57;;;;;;;;;;5019859;28;20244;-70
2024/02/07 00:07:55;;;;;;;6.33;1.27;;;;;;;;;;5029461;28;20586;-69
2024/02/07 00:10:20;;;;;;;4.20;1.37;;;;;;;;;;5029606;28;20265;-68
2024/02/07 00:12:45;;;;;;;3.57;1.30;;;;;;;;;;5031601;28;20688;-69
2024/02/07 00:15:10;;;;;;;8.00;1.90;;;;;;;;;;5029575;28;20194;-70
2024/02/07 00:17:35;;;;;;;3.07;1.50;;;;;;;;;;5022154;28;20273;-70
2024/02/07 00:20:01;;;;;;;5.20;1.67;;;;;;;;;;5028914;28;20289;-70
2024/02/07 00:22:26;;;;;;;4.50;1.27;;;;;;;;;;5020161;28;20244;-70
2024/02/07 00:24:51;;;;;;;7.33;2.00;;;;;;;;;;5027587;28;20642;-72
2024/02/07 00:27:16;;;;;;;6.00;1.67;;;;;;;;;;5028776;28;20205;-71
2024/02/07 00:29:41;;;;;;;4.70;1.90;;;;;;;;;;5023771;28;20224;-70
2024/02/07 00:32:07;;;;;;;7.37;2.13;;;;;;;;;;5012765;28;20228;-70
2024/02/07 00:34:33;;;;;;;5.77;1.97;;;;;;;;;;5031476;28;20240;-71
2024/02/07 00:36:58;;;;;;;4.77;2.10;;;;;;;;;;5024837;28;20194;-70
2024/02/07 00:39:23;;;;;;;4.40;2.20;;;;;;;;;;5024068;28;20677;-68
2024/02/07 00:41:49;;;;;;;3.33;2.03;;;;;;;;;;5028338;28;20819;-70
2024/02/07 00:44:14;;;;;;;6.33;2.17;;;;;;;;;;5030866;28;20181;-70
2024/02/07 00:46:39;;;;;;;8.23;2.30;;;;;;;;;;5012389;28;20202;-70
2024/02/07 00:49:04;;;;;;;8.33;2.77;;;;;;;;;;5030030;28;20210;-69
2024/02/07 00:51:30;;;;;;;7.27;1.80;;;;;;;;;;5030424;28;20257;-69
2024/02/07 00:53:55;;;;;;;6.87;1.40;;;;;;;;;;5030498;28;20189;-70
2024/02/07 00:56:20;;;;;;;10.70;1.80;;;;;;;;;;5024883;28;20202;-69
2024/02/07 00:58:46;;;;;;;6.50;1.93;;;;;;;;;;5023709;28;20558;-69
2024/02/07 01:01:12;;;;;;;4.90;1.70;;;;;;;;;;5012227;28;20210;-69
2024/02/07 01:03:37;;;;;;;6.40;1.90;;;;;;;;;;5013318;28;20654;-70
2024/02/07 01:06:03;;;;;;;6.87;1.47;;;;;;;;;;5029896;28;20206;-70
2024/02/07 01:08:28;;;;;;;9.10;1.17;;;;;;;;;;5015796;28;20198;-70
2024/02/07 01:10:53;;;;;;;3.80;0.70;;;;;;;;;;5020433;28;20178;-69
2024/02/07 01:13:18;;;;;;;5.83;0.93;;;;;;;;;;5007592;28;20663;-70
2024/02/07 01:15:44;;;;;;;6.20;1.10;;;;;;;;;;5029800;28;20209;-70
2024/02/07 01:18:09;;;;;;;5.77;1.60;;;;;;;;;;5029881;28;20769;-69
2024/02/07 01:20:34;;;;;;;5.10;2.00;;;;;;;;;;5011243;28;20205;-69
2024/02/07 01:23:00;;;;;;;7.23;1.10;;;;;;;;;;5018148;28;20174;-69
2024/02/07 01:25:25;;;;;;;6.43;1.20;;;;;;;;;;5016437;28;20194;-69
2024/02/07 01:27:50;;;;;;;6.10;1.37;;;;;;;;;;5029022;28;20174;-70
2024/02/07 01:30:16;;;;;;;6.83;1.10;;;;;;;;;;5029331;28;20680;-70
2024/02/07 01:32:42;;;;;;;8.43;1.57;;;;;;;;;;5030754;28;20189;-70
2024/02/07 01:35:09;;;;;;;5.07;0.97;;;;;;;;;;5025444;28;20179;-70
2024/02/07 01:37:35;;;;;;;5.70;1.00;;;;;;;;;;5026961;28;20184;-69
2024/02/07 01:40:00;;;;;;;5.20;1.00;;;;;;;;;;5026630;28;20209;-71
2024/02/07 01:42:31;;;;;;;10.43;1.20;;;;;;;;;;5018840;28;20205;-69
2024/02/07 01:45:15;;;;;;;7.80;1.23;;;;;;;;;;5027216;28;20232;-69
2024/02/07 01:47:40;;;;;;;8.63;1.10;;;;;;;;;;5027596;28;20178;-70
2024/02/07 01:50:06;;;;;;;7.47;1.30;;;;;;;;;;5029028;28;20186;-70
2024/02/07 01:52:35;;;;;;;6.73;1.13;;;;;;;;;;5004156;28;20688;-69
2024/02/07 01:55:00;;;;;;;6.27;1.03;;;;;;;;;;5024979;28;20309;-69
2024/02/07 01:57:26;;;;;;;11.60;1.13;;;;;;;;;;5029275;28;20244;-69
2024/02/07 01:59:51;;;;;;;5.10;1.23;;;;;;;;;;5029333;28;20221;-69
2024/02/07 02:02:17;;;;;;;3.80;1.30;;;;;;;;;;5028160;28;20181;-70
2024/02/07 02:04:43;;;;;;;3.90;0.90;;;;;;;;;;5023281;28;20273;-70
2024/02/07 02:07:08;;;;;;;5.53;0.90;;;;;;;;;;5029073;28;20624;-70
2024/02/07 02:09:34;;;;;;;7.30;1.20;;;;;;;;;;5027883;28;20189;-70
2024/02/07 02:12:00;;;;;;;5.23;0.90;;;;;;;;;;5020570;28;20179;-69
2024/02/07 02:14:26;;;;;;;4.53;0.83;;;;;;;;;;5002242;28;20723;-69
2024/02/07 02:17:03;;;;;;;9.80;1.67;;;;;;;;;;5033231;22;20225;-86
2024/02/07 02:28:41;;;;;;;9.47;2.10;;;;;;;;;;5010973;22;20291;-66
2024/02/07 02:31:08;;;;;;;6.43;1.40;;;;;;;;;;5020124;28;20605;-67
2024/02/07 02:33:35;;;;;;;4.17;1.00;;;;;;;;;;5017391;28;20186;-67
2024/02/07 02:36:04;;;;;;;8.03;1.17;;;;;;;;;;5022874;28;20576;-67
2024/02/07 02:38:32;;;;;;;16.73;2.03;;;;;;;;;;5009204;28;21017;-67
2024/02/07 02:40:57;;;;;;;8.00;1.50;;;;;;;;;;5021142;28;20210;-67
2024/02/07 02:43:23;;;;;;;5.33;1.03;;;;;;;;;;5020200;28;20269;-67
2024/02/07 02:45:48;;;;;;;6.20;2.10;;;;;;;;;;5021185;28;20191;-66
2024/02/07 02:48:14;;;;;;;6.90;0.77;;;;;;;;;;5024350;28;20583;-67
2024/02/07 02:50:39;;;;;;;5.87;0.80;;;;;;;;;;5028213;28;20544;-67
2024/02/07 02:53:04;;;;;;;5.43;0.93;;;;;;;;;;5029232;28;20190;-67
2024/02/07 02:55:29;;;;;;;6.43;1.17;;;;;;;;;;4999901;28;20197;-66
2024/02/07 02:58:00;;;;;;;4.07;1.00;;;;;;;;;;5028726;28;20203;-67
2024/02/07 03:00:26;;;;;;;3.20;0.93;;;;;;;;;;5033374;28;20206;-67
2024/02/07 03:02:55;;;;;;;3.63;0.60;;;;;;;;;;5021245;28;20676;-67
2024/02/07 03:05:38;;;;;;;3.20;0.87;;;;;;;;;;5023905;28;20182;-68
2024/02/07 03:10:35;;;;;;;7.93;1.13;;;;;;;;;;5029777;28;20198;-66
2024/02/07 03:13:03;;;;;;;6.90;1.10;;;;;;;;;;5023635;28;20193;-68
2024/02/07 03:15:29;;;;;;;6.10;1.10;;;;;;;;;;5021801;28;20681;-68
2024/02/07 03:17:54;;;;;;;7.97;1.20;;;;;;;;;;5005947;28;20187;-68
2024/02/07 03:20:19;;;;;;;11.37;0.97;;;;;;;;;;5026214;28;20191;-68
2024/02/07 03:22:48;;;;;;;5.50;1.10;;;;;;;;;;5024688;28;20218;-68
2024/02/07 03:25:16;;;;;;;4.03;0.90;;;;;;;;;;5005064;28;20178;-67
2024/02/07 03:27:45;;;;;;;3.80;1.03;;;;;;;;;;5007672;28;20199;-69
2024/02/07 03:30:12;;;;;;;3.93;1.13;;;;;;;;;;5010010;28;20710;-66
2024/02/07 03:32:38;;;;;;;5.23;1.97;;;;;;;;;;5021900;28;20186;-67
2024/02/07 03:35:04;;;;;;;3.67;0.63;;;;;;;;;;5023672;28;20273;-69
2024/02/07 03:37:29;;;;;;;6.43;0.67;;;;;;;;;;5030756;28;20285;-68
2024/02/07 03:39:54;;;;;;;8.83;0.93;;;;;;;;;;5020464;28;20218;-68
2024/02/07 03:42:21;;;;;;;9.70;1.27;;;;;;;;;;5016192;28;20175;-67
2024/02/07 03:44:54;;;;;;;4.80;0.90;;;;;;;;;;5020564;28;20224;-68
2024/02/07 03:47:19;;;;;;;6.17;0.90;;;;;;;;;;5007612;28;20613;-67
2024/02/07 03:49:44;;;;;;;5.97;0.90;;;;;;;;;;5018294;28;20224;-68
2024/02/07 03:52:10;;;;;;;6.17;1.00;;;;;;;;;;5018898;28;20529;-68
2024/02/07 03:54:48;;;;;;;5.40;0.93;;;;;;;;;;5018852;28;20179;-68
2024/02/07 03:57:13;;;;;;;3.07;1.00;;;;;;;;;;5016204;28;20281;-68
2024/02/07 03:59:38;;;;;;;5.00;0.83;;;;;;;;;;5026755;28;20292;-68
2024/02/07 04:02:04;;;;;;;13.10;1.20;;;;;;;;;;5020071;28;20171;-68
2024/02/07 04:04:30;;;;;;;5.63;1.10;;;;;;;;;;5020792;28;20743;-68
2024/02/07 04:06:55;;;;;;;6.60;0.87;;;;;;;;;;5021041;28;20206;-68
2024/02/07 04:09:20;;;;;;;7.40;1.07;;;;;;;;;;5027200;28;20175;-66
2024/02/07 05:16:42;;;;;;;10.40;1.23;;;;;;;;;;5022392;28;20268;-68
2024/02/07 05:19:07;;;;;;;4.63;1.23;;;;;;;;;;5025002;28;20182;-67
2024/02/07 05:21:34;;;;;;;7.83;1.17;;;;;;;;;;5010870;28;20763;-68
2024/02/07 05:24:00;;;;;;;6.97;1.27;;;;;;;;;;5016187;28;20228;-67
2024/02/07 05:26:25;;;;;;;6.93;1.20;;;;;;;;;;5026003;28;20505;-68
2024/02/07 05:28:50;;;;;;;5.23;0.77;;;;;;;;;;5014164;28;20739;-67
2024/02/07 05:31:15;;;;;;;2.40;1.03;;;;;;;;;;5009038;28;20179;-68
2024/02/07 05:33:41;;;;;;;6.40;1.37;;;;;;;;;;5028683;28;20364;-68
2024/02/07 05:36:06;;;;;;;3.10;0.97;;;;;;;;;;5025288;28;20558;-68
2024/02/07 05:38:31;;;;;;;4.67;1.03;;;;;;;;;;5021228;28;20274;-68
2024/02/07 05:40:56;;;;;;;6.53;1.10;;;;;;;;;;5002942;28;20596;-68
2024/02/07 05:43:21;;;;;;;6.30;1.30;;;;;;;;;;5002864;28;20175;-68
2024/02/07 05:45:47;;;;;;;4.23;1.37;;;;;;;;;;5022399;28;20654;-68
2024/02/07 05:48:12;;;;;;;9.87;1.23;;;;;;;;;;5025937;28;20197;-68
2024/02/07 05:50:37;;;;;;;2.93;0.80;;;;;;;;;;5019857;28;20201;-68
2024/02/07 05:53:02;;;;;;;4.67;1.23;;;;;;;;;;5026541;28;20265;-69
2024/02/07 05:55:27;;;;;;;3.70;1.10;;;;;;;;;;5023879;28;20174;-68
2024/02/07 05:57:53;;;;;;;4.80;1.20;;;;;;;;;;5022477;28;20673;-68
2024/02/07 06:00:18;;;;;;;5.97;2.03;;;;;;;;;;5020755;28;20198;-67
2024/02/07 06:02:43;;;;;;;5.00;1.60;;;;;;;;;;5009560;28;20186;-69
2024/02/07 06:05:10;;;;;;;6.10;1.40;;;;;;;;;;5019004;28;20619;-68
2024/02/07 06:07:35;;;;;;;8.90;1.47;;;;;;;;;;5019220;28;20206;-68
2024/02/07 06:10:01;;;;;;;8.43;1.40;;;;;;;;;;5020342;28;20750;-68
2024/02/07 06:12:27;;;;;;;7.40;1.23;;;;;;;;;;5030205;28;20293;-69
2024/02/07 06:14:55;;;;;;;6.03;1.30;;;;;;;;;;5021644;28;20193;-66
2024/02/07 06:17:20;;;;;;;6.00;1.77;;;;;;;;;;5022581;28;20255;-67
2024/02/07 06:19:45;;;;;;;5.23;1.43;;;;;;;;;;5029807;28;20209;-66
2024/02/07 06:22:11;;;;;;;6.00;1.53;;;;;;;;;;5025366;28;20178;-67
2024/02/07 06:24:37;;;;;;;6.47;1.20;;;;;;;;;;5010222;28;20190;-69
2024/02/07 06:27:02;;;;;;;5.17;1.17;;;;;;;;;;5002986;28;20248;-68
2024/02/07 06:29:28;;;;;;;6.33;1.10;;;;;;;;;;5008254;28;20195;-67
2024/02/07 06:31:54;;;;;;;4.93;1.33;;;;;;;;;;5028632;28;21951;-67
2024/02/07 06:34:20;;;;;;;6.20;0.90;;;;;;;;;;5024360;28;20171;-68
2024/02/07 06:36:46;;;;;;;4.50;1.30;;;;;;;;;;5029717;28;20194;-67
2024/02/07 06:39:11;;;;;;;5.60;1.40;;;;;;;;;;5010143;28;20186;-68
2024/02/07 06:41:36;;;;;;;9.50;1.10;;;;;;;;;;5028517;28;20593;-68
2024/02/07 06:44:01;;;;;;;9.67;1.80;;;;;;;;;;5024300;28;20181;-68
2024/02/07 06:46:29;;;;;;;6.90;1.27;;;;;;;;;;5022837;28;20198;-68
2024/02/07 06:48:54;;;;;;;7.23;1.47;;;;;;;;;;5025372;28;20812;-66
2024/02/07 06:51:19;;;;;;;7.23;1.30;;;;;;;;;;5011722;28;20186;-68
2024/02/07 06:53:44;;;;;;;5.97;1.10;;;;;;;;;;5021163;28;20182;-68
2024/02/07 06:56:10;;;;;;;4.23;1.40;;;;;;;;;;5021291;28;20475;-68
2024/02/07 06:58:35;;;;;;;6.33;1.33;;;;;;;;;;5028632;28;20266;-67
2024/02/07 07:01:00;;;;;;;5.90;1.70;;;;;;;;;;5021252;28;20593;-68
2024/02/07 07:03:26;;;;;;;3.63;1.70;;;;;;;;;;5008326;28;20179;-67
2024/02/07 07:05:51;;;;;;;5.67;1.43;;;;;;;;;;5023063;28;20194;-68
2024/02/07 07:08:16;;;;;;;4.00;1.20;;;;;;;;;;5023827;28;20238;-69
2024/02/07 07:10:42;;;;;;;7.57;1.60;;;;;;;;;;5022358;28;20283;-68
2024/02/07 07:13:07;;;;;;;7.67;1.97;;;;;;;;;;5023476;28;20193;-68
2024/02/07 07:15:33;;;;;;;6.10;1.77;;;;;;;;;;5011377;28;20245;-68
2024/02/07 07:17:58;;;;;;;11.53;2.33;;;;;;;;;;5027258;28;20187;-67
2024/02/07 07:20:23;;;;;;;7.27;2.57;;;;;;;;;;5021588;28;20724;-68
2024/02/07 07:22:48;;;;;;;8.93;1.80;;;;;;;;;;5024082;28;20174;-68
2024/02/07 07:25:13;;;;;;;6.83;1.70;;;;;;;;;;5011346;28;20178;-69
2024/02/07 07:27:39;;;;;;;10.27;1.80;;;;;;;;;;5023581;28;20206;-68
2024/02/07 07:30:04;;;;;;;14.73;2.63;;;;;;;;;;5022150;28;20190;-68
2024/02/07 07:32:29;;;;;;;7.13;1.63;;;;;;;;;;5022365;28;20182;-68
2024/02/07 07:34:54;;;;;;;5.93;2.20;;;;;;;;;;5028654;28;20260;-68
2024/02/07 07:37:20;;;;;;;6.30;1.90;;;;;;;;;;5025474;28;20234;-67
2024/02/07 07:39:46;;;;;;;6.77;2.20;;;;;;;;;;5021322;28;20289;-68
2024/02/07 07:42:11;;;;;;;5.63;1.63;;;;;;;;;;5022876;28;20258;-68
2024/02/07 07:44:38;;;;;;;12.37;2.20;;;;;;;;;;5008251;28;20565;-68
2024/02/07 07:47:03;;;;;;;4.97;2.07;;;;;;;;;;5013648;28;20199;-68
2024/02/07 07:49:28;;;;;;;4.37;2.00;;;;;;;;;;5009852;28;20175;-68
2024/02/07 07:51:54;;;;;;;6.87;1.50;;;;;;;;;;5026614;28;20683;-68
2024/02/07 07:54:19;;;;;;;8.57;2.10;;;;;;;;;;5022915;28;20583;-68
2024/02/07 07:56:44;;;;;;;8.00;1.83;;;;;;;;;;5023953;28;20281;-67
2024/02/07 07:59:09;;;;;;;9.60;1.63;;;;;;;;;;5009074;28;20196;-68
2024/02/07 08:01:35;;;;;;;5.33;2.33;;;;;;;;;;5003180;28;20228;-68
2024/02/07 08:04:00;;;;;;;12.30;2.23;;;;;;;;;;5022771;28;20170;-68
2024/02/07 08:06:25;;;;;;;10.93;2.27;;;;;;;;;;5001860;28;20653;-68
2024/02/07 08:08:50;;;;;;;11.80;1.80;;;;;;;;;;5028378;28;20182;-68
2024/02/07 08:11:15;;;;;;;6.20;1.70;;;;;;;;;;5027163;28;20217;-68
2024/02/07 08:13:41;;;;;;;9.37;1.87;;;;;;;;;;5023205;28;20666;-67
2024/02/07 08:16:06;;;;;;;9.50;2.00;;;;;;;;;;5017174;28;20694;-68
2024/02/07 08:18:32;;;;;;;8.20;1.70;;;;;;;;;;5029527;28;20178;-67
2024/02/07 08:20:57;;;;;;;5.13;2.10;;;;;;;;;;5025267;28;20673;-68
2024/02/07 08:23:23;;;;;;;7.23;1.97;;;;;;;;;;5025550;28;20642;-68
2024/02/07 08:25:48;;;;;;;6.37;1.87;;;;;;;;;;5027738;28;20208;-71
2024/02/07 08:28:13;;;;;;;8.90;2.27;;;;;;;;;;5023360;28;20182;-70
2024/02/07 08:30:38;;;;;;;6.83;1.73;;;;;;;;;;5019197;28;20182;-71
2024/02/07 08:33:04;;;;;;;9.37;3.13;;;;;;;;;;5023611;28;20209;-71
2024/02/07 08:35:29;;;;;;;4.17;2.07;;;;;;;;;;5019683;28;20186;-70
2024/02/07 08:37:58;;;;;;;10.27;2.23;;;;;;;;;;5000842;28;20205;-71
2024/02/07 08:40:24;;;;;;;4.17;2.00;;;;;;;;;;5021814;28;20280;-71
2024/02/07 08:42:49;;;;;;;7.53;1.80;;;;;;;;;;5008496;28;20294;-70
2024/02/07 08:45:14;;;;;;;6.70;2.50;;;;;;;;;;5007805;28;20216;-71
2024/02/07 08:47:39;;;;;;;9.17;2.57;;;;;;;;;;5024315;28;20689;-71
2024/02/07 08:50:05;;;;;;;11.93;2.80;;;;;;;;;;5019555;28;20187;-70
2024/02/07 08:52:30;;;;;;;7.27;2.20;;;;;;;;;;5008380;28;20178;-71
2024/02/07 08:54:55;;;;;;;11.73;2.93;;;;;;;;;;5028521;28;20289;-72
2024/02/07 08:57:22;;;;;;;7.77;2.33;;;;;;;;;;5008265;28;20202;-70
2024/02/07 08:59:48;;;;;;;11.83;2.53;;;;;;;;;;5020652;28;20199;-71
2024/02/07 09:02:13;;;;;;;10.33;2.60;;;;;;;;;;5029060;28;20603;-70
2024/02/07 09:04:38;;;;;;;10.03;2.87;;;;;;;;;;5025853;28;20178;-71
2024/02/07 09:07:03;;;;;;;14.37;3.00;;;;;;;;;;5022849;28;20212;-71
2024/02/07 09:09:28;;;;;;;9.37;2.40;;;;;;;;;;5011307;28;20201;-70
2024/02/07 09:11:54;;;;;;;14.27;4.27;;;;;;;;;;5026331;28;20185;-72
2024/02/07 09:14:19;;;;;;;8.87;3.10;;;;;;;;;;5013292;28;20178;-71
2024/02/07 09:16:44;;;;;;;15.67;3.40;;;;;;;;;;5016840;28;21522;-70
2024/02/07 09:19:09;;;;;;;12.57;2.83;;;;;;;;;;5024710;28;20633;-70
2024/02/07 09:21:34;;;;;;;12.07;2.83;;;;;;;;;;5028958;28;20206;-70
2024/02/07 09:24:00;;;;;;;12.13;2.53;;;;;;;;;;5025945;28;20214;-70
2024/02/07 09:26:29;;;;;;;9.57;2.77;;;;;;;;;;4996570;28;20198;-70
2024/02/07 09:28:54;;;;;;;13.30;3.10;;;;;;;;;;4996136;28;20546;-69
2024/02/07 09:31:20;;;;;;;10.87;2.67;;;;;;;;;;5020064;28;20193;-70
2024/02/07 09:33:45;;;;;;;11.70;2.47;;;;;;;;;;5027192;28;20224;-69
2024/02/07 09:36:10;;;;;;;6.20;2.33;;;;;;;;;;5020848;28;20194;-72
2024/02/07 09:38:37;;;;;;;14.90;3.33;;;;;;;;;;5019009;28;20201;-69
2024/02/07 09:41:04;;;;;;;10.27;3.07;;;;;;;;;;5003915;28;20205;-69
2024/02/07 09:43:29;;;;;;;13.27;3.33;;;;;;;;;;5005402;28;20174;-70
2024/02/07 09:45:58;;;;;;;15.53;3.03;;;;;;;;;;5006147;28;20584;-69
2024/02/07 09:48:27;;;;;;;13.03;3.33;;;;;;;;;;5022603;28;20261;-70
2024/02/07 09:50:53;;;;;;;10.07;2.70;;;;;;;;;;5025233;28;20704;-71
2024/02/07 09:53:19;;;;;;;12.20;2.30;;;;;;;;;;5027646;28;20182;-70
2024/02/07 09:55:45;;;;;;;14.60;3.50;;;;;;;;;;5023859;28;20256;-69
2024/02/07 09:58:10;;;;;;;12.13;2.50;;;;;;;;;;5022041;28;20442;-70
2024/02/07 10:00:36;;;;;;;15.90;2.37;;;;;;;;;;5025436;28;20774;-70
2024/02/07 10:03:04;;;;;;;15.90;2.60;;;;;;;;;;5004606;28;20594;-70
2024/02/07 10:05:31;;;;;;;13.00;3.17;;;;;;;;;;5020780;28;20252;-70
2024/02/07 10:07:56;;;;;;;13.97;3.93;;;;;;;;;;5005264;28;20178;-70
2024/02/07 10:10:21;;;;;;;16.27;3.57;;;;;;;;;;5023550;28;20201;-71
2024/02/07 10:12:46;;;;;;;7.50;2.83;;;;;;;;;;5019642;28;20233;-70
2024/02/07 10:15:12;;;;;;;10.40;2.77;;;;;;;;;;5023936;28;20298;-71
2024/02/07 10:17:37;;;;;;;7.27;2.03;;;;;;;;;;5027719;28;20733;-70
2024/02/07 10:20:10;;;;;;;13.03;2.77;;;;;;;;;;5024604;28;20241;-72
2024/02/07 10:22:42;;;;;;;13.80;2.70;;;;;;;;;;5026214;28;20178;-70
2024/02/07 10:25:14;;;;;;;12.60;3.57;;;;;;;;;;5023635;28;20228;-70
2024/02/07 10:27:39;;;;;;;15.33;2.20;;;;;;;;;;5025051;28;20202;-72
2024/02/07 10:30:07;;;;;;;10.97;2.50;;;;;;;;;;5026088;28;20186;-71
2024/02/07 10:32:33;;;;;;;10.93;3.07;;;;;;;;;;5026686;28;20214;-70
2024/02/07 10:34:58;;;;;;;15.90;2.33;;;;;;;;;;5023749;28;20673;-69
2024/02/07 10:37:24;;;;;;;17.07;3.37;;;;;;;;;;5022698;28;20226;-70
2024/02/07 10:39:49;;;;;;;16.03;3.27;;;;;;;;;;5026033;28;20627;-70
2024/02/07 10:42:14;;;;;;;10.27;2.03;;;;;;;;;;5020751;28;20183;-70
2024/02/07 10:44:40;;;;;;;10.00;1.83;;;;;;;;;;5021739;28;20191;-69
2024/02/07 10:47:07;;;;;;;15.97;2.83;;;;;;;;;;5019927;28;20215;-69
2024/02/07 10:49:33;;;;;;;12.17;2.27;;;;;;;;;;5020038;28;20198;-69
2024/02/07 10:51:58;;;;;;;12.40;2.13;;;;;;;;;;5025351;28;20273;-70
2024/02/07 10:54:25;;;;;;;16.53;2.17;;;;;;;;;;5024551;28;20638;-70
2024/02/07 10:56:51;;;;;;;12.50;2.70;;;;;;;;;;5024813;28;20210;-70
2024/02/07 10:59:17;;;;;;;8.67;1.30;;;;;;;;;;5021372;28;20642;-69
2024/02/07 11:01:43;;;;;;;9.93;2.37;;;;;;;;;;5028440;28;20241;-70
2024/02/07 11:04:08;;;;;;;8.23;2.20;;;;;;;;;;5021882;28;20625;-70
2024/02/07 11:06:35;;;;;;;16.33;2.37;;;;;;;;;;5021993;28;20249;-69
2024/02/07 11:09:02;;;;;;;9.47;1.83;;;;;;;;;;5007445;28;20198;-70
2024/02/07 11:11:29;;;;;;;13.10;1.60;;;;;;;;;;5021468;28;20187;-69
2024/02/07 11:13:56;;;;;;;5.90;1.93;;;;;;;;;;5025959;28;20191;-70
2024/02/07 11:16:22;;;;;;;8.83;2.20;;;;;;;;;;5027014;28;20588;-69
2024/02/07 11:18:47;;;;;;;9.77;2.83;;;;;;;;;;5021848;28;20175;-71
2024/02/07 11:21:14;;;;;;;8.27;2.33;;;;;;;;;;5003024;28;20757;-70
2024/02/07 11:23:40;;;;;;;6.22;2.03;;;;;;;;;;5019708;28;20622;-70
2024/02/07 11:26:06;;;;;;;13.25;2.63;;;;;;;;;;5029228;28;20228;-70
2024/02/07 11:28:32;;;;;;;9.27;1.45;;;;;;;;;;5018672;28;20195;-70
2024/02/07 11:30:58;;;;;;;12.63;1.75;;;;;;;;;;5026724;28;20170;-71
2024/02/07 11:33:23;;;;;;;11.27;1.90;;;;;;;;;;5024483;28;20232;-71
2024/02/07 11:35:49;;;;;;;6.30;1.30;;;;;;;;;;5017981;28;20199;-70
2024/02/07 11:38:16;;;;;;;9.90;2.10;;;;;;;;;;5017222;28;20197;-70
2024/02/07 11:40:43;;;;;;;6.18;1.48;;;;;;;;;;5027542;28;20618;-70
2024/02/07 11:43:17;;;;;;;6.55;2.28;;;;;;;;;;5002059;28;21314;-71
2024/02/07 11:45:43;;;;;;;11.63;2.25;;;;;;;;;;5003380;28;20240;-70
2024/02/07 11:48:41;;;;;;;4.53;1.50;;;;;;;;;;5022304;28;20178;-70
2024/02/07 11:51:07;;;;;;;11.45;1.70;;;;;;;;;;5005688;28;20811;-70
2024/02/07 11:53:32;;;;;;;7.82;1.95;;;;;;;;;;5022092;28;20189;-70
2024/02/07 11:55:58;;;;;;;7.85;2.00;;;;;;;;;;5023355;28;20198;-70
2024/02/07 11:58:24;;;;;;;7.30;1.58;;;;;;;;;;5003669;28;20174;-71
2024/02/07 12:00:49;;;;;;;8.27;1.35;;;;;;;;;;5021825;28;20703;-71
2024/02/07 12:03:15;;;;;;;6.00;1.30;;;;;;;;;;5022919;28;20258;-70
2024/02/07 12:05:41;;;;;;;11.82;1.80;;;;;;;;;;5020188;28;20198;-70
2024/02/07 12:08:07;;;;;;;11.68;1.85;;;;;;;;;;5019244;28;20221;-70
2024/02/07 12:10:34;;;;;;;10.82;1.45;;;;;;;;;;5021048;28;20217;-70
2024/02/07 12:12:59;;;;;;;10.25;1.85;;;;;;;;;;5031987;28;20186;-70
2024/02/07 12:15:27;;;;;;;10.13;1.58;;;;;;;;;;5011780;28;20189;-72
2024/02/07 12:17:53;;;;;;;7.20;1.58;;;;;;;;;;5025043;28;20178;-69
2024/02/07 12:20:18;;;;;;;6.65;1.65;;;;;;;;;;5020315;28;20198;-70
2024/02/07 12:22:45;;;;;;;13.35;1.95;;;;;;;;;;5024851;28;20174;-69
2024/02/07 12:25:14;;;;;;;6.53;1.95;;;;;;;;;;5026708;28;20209;-70
2024/02/07 12:27:41;;;;;;;10.98;2.28;;;;;;;;;;5026056;28;20198;-69
2024/02/07 12:30:06;;;;;;;10.85;1.60;;;;;;;;;;5012150;28;20186;-69
2024/02/07 12:32:31;;;;;;;11.20;1.95;;;;;;;;;;5023524;28;20185;-70
2024/02/07 12:34:59;;;;;;;7.13;1.73;;;;;;;;;;5018362;28;20721;-68
2024/02/07 12:37:25;;;;;;;6.63;1.40;;;;;;;;;;5004009;28;20241;-70
2024/02/07 12:39:50;;;;;;;8.32;2.13;;;;;;;;;;5017979;28;20616;-69
2024/02/07 12:42:19;;;;;;;5.03;1.60;;;;;;;;;;5024666;28;20210;-69
2024/02/07 12:44:46;;;;;;;14.65;2.83;;;;;;;;;;5021140;28;20241;-69
2024/02/07 12:47:11;;;;;;;8.27;1.83;;;;;;;;;;5018716;28;20222;-69
2024/02/07 12:49:36;;;;;;;9.82;1.80;;;;;;;;;;5019291;28;20220;-69
2024/02/07 12:52:02;;;;;;;10.73;1.95;;;;;;;;;;5023565;28;20178;-69
2024/02/07 12:54:28;;;;;;;8.73;1.55;;;;;;;;;;5019262;28;20227;-69
2024/02/07 12:56:56;;;;;;;12.20;2.30;;;;;;;;;;5022795;28;20656;-69
2024/02/07 12:59:34;;;;;;;5.85;1.60;;;;;;;;;;5024619;28;20222;-69
2024/02/07 13:02:08;;;;;;;6.20;1.85;;;;;;;;;;5025284;28;20658;-69
2024/02/07 13:04:34;;;;;;;5.95;1.80;;;;;;;;;;5024283;28;20209;-69
2024/02/07 13:06:59;;;;;;;10.65;1.90;;;;;;;;;;5024866;28;20225;-70
2024/02/07 13:09:28;;;;;;;6.65;1.73;;;;;;;;;;5023681;28;20233;-70
2024/02/07 13:11:54;;;;;;;5.80;1.70;;;;;;;;;;5021717;28;20224;-69
2024/02/07 13:14:19;;;;;;;8.77;1.85;;;;;;;;;;5025053;28;20269;-69
2024/02/07 13:16:45;;;;;;;9.57;1.63;;;;;;;;;;5018583;28;21661;-70
2024/02/07 13:19:13;;;;;;;7.25;2.10;;;;;;;;;;5023684;28;20179;-69
2024/02/07 13:21:39;;;;;;;7.07;1.85;;;;;;;;;;5002825;28;20250;-69
2024/02/07 13:24:04;;;;;;;6.15;1.95;;;;;;;;;;5021015;28;20171;-69
2024/02/07 13:26:29;;;;;;;5.10;1.42;;;;;;;;;;5009447;28;20551;-70
2024/02/07 13:28:55;;;;;;;9.25;1.67;;;;;;;;;;5016556;28;20182;-69
2024/02/07 13:31:20;;;;;;;9.00;1.30;;;;;;;;;;5021157;28;20178;-69
2024/02/07 13:33:45;;;;;;;6.15;1.85;;;;;;;;;;5010126;28;20258;-69
2024/02/07 13:36:10;;;;;;;11.48;1.77;;;;;;;;;;5020130;28;20686;-70
2024/02/07 13:38:36;;;;;;;6.28;1.77;;;;;;;;;;5028338;28;20288;-69
2024/02/07 13:41:01;;;;;;;6.72;2.25;;;;;;;;;;5022379;28;20206;-69
2024/02/07 13:43:26;;;;;;;3.95;0.98;;;;;;;;;;5021342;28;20182;-70
2024/02/07 13:45:51;;;;;;;7.72;1.42;;;;;;;;;;5023450;28;20879;-70
2024/02/07 13:48:16;;;;;;;4.32;1.20;;;;;;;;;;5001944;28;20177;-70
2024/02/07 13:50:42;;;;;;;11.07;1.58;;;;;;;;;;5025227;28;20191;-69
2024/02/07 13:53:08;;;;;;;6.32;1.15;;;;;;;;;;5017975;28;20601;-70
2024/02/07 13:55:34;;;;;;;13.38;2.33;;;;;;;;;;5027494;28;20182;-69
2024/02/07 13:57:59;;;;;;;9.88;1.65;;;;;;;;;;5021497;28;20680;-70
2024/02/07 14:00:24;;;;;;;4.15;1.17;;;;;;;;;;5025500;28;20559;-69
2024/02/07 14:02:49;;;;;;;6.88;1.77;;;;;;;;;;5023492;28;20182;-69
2024/02/07 14:05:15;;;;;;;11.20;2.22;;;;;;;;;;5017104;28;20187;-69
2024/02/07 14:07:40;;;;;;;5.22;1.45;;;;;;;;;;5016551;28;20193;-69
2024/02/07 14:10:06;;;;;;;6.78;1.88;;;;;;;;;;5020753;28;20206;-70
2024/02/07 14:12:31;;;;;;;8.18;2.22;;;;;;;;;;5019124;28;20193;-69
2024/02/07 14:14:56;;;;;;;6.32;1.60;;;;;;;;;;5003541;28;20181;-70
2024/02/07 14:17:22;;;;;;;6.78;1.63;;;;;;;;;;5022702;28;20209;-69
2024/02/07 14:19:47;;;;;;;10.95;1.98;;;;;;;;;;5019296;28;20186;-70
2024/02/07 14:22:12;;;;;;;6.55;1.35;;;;;;;;;;5024253;28;20179;-69
2024/02/07 14:24:38;;;;;;;11.82;1.88;;;;;;;;;;5023243;28;20668;-69
2024/02/07 14:27:04;;;;;;;7.93;2.38;;;;;;;;;;5064826;22;20237;-70
2024/02/07 14:29:29;;;;;;;6.57;1.75;;;;;;;;;;5056447;28;20175;-70
2024/02/07 14:31:55;;;;;;;5.78;1.40;;;;;;;;;;5062254;28;20307;-69
2024/02/07 14:34:21;;;;;;;3.78;1.17;;;;;;;;;;5063152;28;20652;-69
2024/02/07 14:36:46;;;;;;;5.90;1.30;;;;;;;;;;5051721;28;20275;-70
2024/02/07 14:39:11;;;;;;;6.28;1.58;;;;;;;;;;5044271;28;20184;-69
2024/02/07 14:41:36;;;;;;;8.38;1.67;;;;;;;;;;5050597;28;20208;-70
2024/02/07 14:44:02;;;;;;;9.38;1.50;;;;;;;;;;5051527;28;20170;-70
2024/02/07 14:46:27;;;;;;;6.53;1.40;;;;;;;;;;5044115;28;20197;-69
2024/02/07 14:48:52;;;;;;;15.18;1.55;;;;;;;;;;5029294;28;20181;-69
2024/02/07 14:51:17;;;;;;;6.85;1.30;;;;;;;;;;5029645;28;20625;-69
2024/02/07 14:53:42;;;;;;;8.82;1.45;;;;;;;;;;5044908;28;20260;-70
2024/02/07 14:56:08;;;;;;;7.63;1.40;;;;;;;;;;5027047;28;20227;-70
2024/02/07 14:58:33;;;;;;;7.13;1.67;;;;;;;;;;5028528;28;20181;-70
2024/02/07 15:00:58;;;;;;;6.57;1.60;;;;;;;;;;5050299;28;20189;-69
2024/02/07 15:03:24;;;;;;;5.33;1.60;;;;;;;;;;5024005;28;20554;-71
2024/02/07 15:05:49;;;;;;;5.80;1.40;;;;;;;;;;5043017;28;20204;-69
2024/02/07 15:08:14;;;;;;;10.23;1.97;;;;;;;;;;5044792;28;20174;-69
2024/02/07 15:10:41;;;;;;;9.50;1.60;;;;;;;;;;5028914;28;20185;-70
2024/02/07 15:13:06;;;;;;;11.93;2.23;;;;;;;;;;5044988;28;20320;-70
2024/02/07 15:15:31;;;;;;;4.83;1.77;;;;;;;;;;5050927;28;20604;-70
2024/02/07 15:17:56;;;;;;;13.63;2.20;;;;;;;;;;5042016;28;20186;-71
2024/02/07 15:20:22;;;;;;;12.23;2.10;;;;;;;;;;5043415;28;20202;-70
2024/02/07 15:22:47;;;;;;;11.73;2.00;;;;;;;;;;5048889;28;20185;-69
2024/02/07 15:25:12;;;;;;;11.67;2.20;;;;;;;;;;5050359;28;20201;-69
2024/02/07 15:27:37;;;;;;;11.90;2.13;;;;;;;;;;5048204;28;20568;-68
2024/02/07 15:30:03;;;;;;;8.33;1.93;;;;;;;;;;5043540;28;20450;-69
2024/02/07 15:32:29;;;;;;;8.97;1.90;;;;;;;;;;5048991;28;20256;-70
2024/02/07 15:34:55;;;;;;;6.97;1.63;;;;;;;;;;5048301;28;20684;-69
2024/02/07 15:37:20;;;;;;;12.03;1.80;;;;;;;;;;5048141;28;20202;-70
2024/02/07 15:39:45;;;;;;;6.23;2.13;;;;;;;;;;5045612;28;20526;-70
2024/02/07 15:42:10;;;;;;;11.70;1.63;;;;;;;;;;5050978;28;20170;-69
2024/02/07 15:44:35;;;;;;;9.13;1.83;;;;;;;;;;5050773;28;20223;-70
2024/02/07 15:47:01;;;;;;;6.53;1.83;;;;;;;;;;5033616;28;20199;-69